Time;durP1;ratioP1;P1;durP2;ratioP2;P2;SDS_P1;SDS_P2;PMS_P1;PMS_P2;Temp;Humidity;BMP_temperature;BMP_pressure;BME280_temperature;BME280_humidity;BME280_pressure;Samples;Min_cycle;Max_cycle;Signal;HPM_P1;HPM_P2
2021/04/03 00:01:47;;;;;;;30.42;4.50;;;;;;;1.72;99.93;101242.72;5060059;28;20495;-79
2021/04/03 00:04:13;;;;;;;23.08;3.33;;;;;;;1.71;100.00;101246.09;5059655;28;20036;-79
2021/04/03 00:06:38;;;;;;;26.50;4.53;;;;;;;1.71;100.00;101248.66;5060643;28;20051;-80
2021/04/03 00:09:03;;;;;;;31.63;4.57;;;;;;;1.68;100.00;101247.72;5058386;28;20025;-80
2021/04/03 00:11:29;;;;;;;21.42;3.78;;;;;;;1.65;100.00;101238.25;5060069;28;20033;-80
2021/04/03 00:13:54;;;;;;;33.05;4.10;;;;;;;1.66;100.00;101249.34;5059727;28;20029;-79
2021/04/03 00:16:19;;;;;;;36.40;4.82;;;;;;;1.61;100.00;101250.09;5058104;28;20082;-80
2021/04/03 00:18:45;;;;;;;26.40;4.85;;;;;;;1.57;100.00;101253.38;5059730;28;20029;-80
2021/04/03 00:21:10;;;;;;;37.58;4.55;;;;;;;1.60;100.00;101250.91;5060022;28;20025;-79
2021/04/03 00:23:36;;;;;;;27.75;4.45;;;;;;;1.61;100.00;101250.09;5060848;28;20476;-79
2021/04/03 00:26:02;;;;;;;40.80;5.05;;;;;;;1.58;100.00;101255.13;5058317;28;20052;-80
2021/04/03 00:28:27;;;;;;;28.33;4.03;;;;;;;1.56;100.00;101245.66;5059108;28;20099;-80
2021/04/03 00:30:52;;;;;;;32.70;4.13;;;;;;;1.58;100.00;101244.88;5059757;28;20039;-79
2021/04/03 00:33:17;;;;;;;31.27;5.07;;;;;;;1.57;100.00;101245.72;5061764;28;20032;-79
2021/04/03 00:35:46;;;;;;;29.42;4.18;;;;;;;1.52;100.00;101252.38;5063744;28;20096;-79
2021/04/03 00:38:13;;;;;;;34.97;4.50;;;;;;;1.48;100.00;101247.09;5060274;28;20029;-79
2021/04/03 00:40:44;;;;;;;38.50;4.63;;;;;;;1.49;100.00;101252.28;5058500;28;20484;-80
2021/04/03 00:43:18;;;;;;;34.65;5.28;;;;;;;1.48;100.00;101249.66;5058378;28;20029;-80
2021/04/03 00:45:45;;;;;;;36.15;6.63;;;;;;;1.44;100.00;101253.81;5058608;28;20027;-80
2021/04/03 00:48:11;;;;;;;45.00;5.45;;;;;;;1.37;100.00;101257.88;5058793;28;20070;-79
2021/04/03 00:50:40;;;;;;;29.33;5.07;;;;;;;1.33;100.00;101255.22;5059861;28;20036;-79
2021/04/03 00:53:06;;;;;;;37.35;5.40;;;;;;;1.30;100.00;101265.34;5061615;28;20021;-80
2021/04/03 00:55:32;;;;;;;35.33;5.72;;;;;;;1.31;100.00;101257.69;5060500;28;20484;-80
2021/04/03 00:57:59;;;;;;;41.17;5.22;;;;;;;1.34;100.00;101264.59;5058572;28;20025;-80
2021/04/03 01:00:24;;;;;;;38.15;5.70;;;;;;;1.36;100.00;101265.53;5058106;28;20021;-80
2021/04/03 01:02:49;;;;;;;39.70;5.35;;;;;;;1.32;100.00;101268.78;5059334;28;20025;-80
2021/04/03 01:05:19;;;;;;;28.83;4.68;;;;;;;1.30;100.00;101260.22;5058129;28;20025;-80
2021/04/03 01:07:44;;;;;;;38.50;5.97;;;;;;;1.32;100.00;101259.44;5057951;28;20021;-81
2021/04/03 01:10:14;;;;;;;35.33;5.72;;;;;;;1.34;100.00;101262.03;5060631;28;20388;-81
2021/04/03 01:12:46;;;;;;;37.00;6.07;;;;;;;1.34;100.00;101260.34;5063622;28;20013;-81
2021/04/03 01:15:22;;;;;;;39.58;5.32;;;;;;;1.28;100.00;101262.72;5061494;28;20025;-80
2021/04/03 01:18:17;;;;;;;38.22;5.22;;;;;;;1.32;100.00;101258.56;5062963;28;20029;-80
2021/04/03 01:20:48;;;;;;;35.03;4.93;;;;;;;1.33;100.00;101265.44;5061399;28;20063;-80
2021/04/03 01:23:38;;;;;;;32.40;5.07;;;;;;;1.28;100.00;101262.72;5062095;28;20033;-80
2021/04/03 01:26:40;;;;;;;38.47;4.78;;;;;;;1.33;100.00;101271.41;5062211;28;20029;-80
2021/04/03 01:29:42;;;;;;;38.55;4.65;;;;;;;1.30;100.00;101280.66;5061769;28;20025;-80
2021/04/03 01:32:09;;;;;;;44.40;4.63;;;;;;;1.29;100.00;101276.34;5060626;28;20484;-80
2021/04/03 01:34:38;;;;;;;33.60;4.53;;;;;;;1.28;100.00;101269.53;5063139;28;20044;-80
2021/04/03 01:37:07;;;;;;;46.22;5.47;;;;;;;1.25;100.00;101277.09;5065755;28;20396;-80
2021/04/03 01:39:35;;;;;;;43.20;5.82;;;;;;;1.25;100.00;101285.63;5060842;28;20048;-81
2021/04/03 01:42:04;;;;;;;35.10;5.07;;;;;;;1.26;100.00;101282.28;5059180;28;20025;-81
2021/04/03 01:44:34;;;;;;;41.53;4.55;;;;;;;1.17;100.00;101288.75;5061244;28;20032;-81
2021/04/03 01:47:01;;;;;;;42.75;5.72;;;;;;;1.19;100.00;101287.13;5060715;28;20025;-81
2021/04/03 01:49:27;;;;;;;43.83;6.13;;;;;;;1.14;100.00;101295.50;5059797;28;20017;-80
2021/04/03 01:51:53;;;;;;;44.60;5.07;;;;;;;1.15;100.00;101289.56;5061039;28;20044;-81
2021/04/03 01:54:21;;;;;;;41.67;5.22;;;;;;;1.14;100.00;101292.97;5062486;28;20028;-80
2021/04/03 01:56:49;;;;;;;34.53;5.47;;;;;;;1.13;100.00;101288.66;5060708;28;20021;-80
2021/04/03 01:59:16;;;;;;;38.90;5.32;;;;;;;1.11;100.00;101294.56;5061740;28;20373;-80
2021/04/03 02:01:44;;;;;;;35.55;4.90;;;;;;;1.06;100.00;101296.94;5061451;28;20542;-81
2021/04/03 02:04:12;;;;;;;35.40;5.20;;;;;;;1.10;100.00;101293.66;5061044;28;20392;-80
2021/04/03 02:06:41;;;;;;;46.22;5.85;;;;;;;1.06;100.00;101296.09;5059817;28;20024;-81
2021/04/03 02:09:09;;;;;;;44.03;6.03;;;;;;;1.05;100.00;101297.78;5060773;28;20017;-81
2021/04/03 02:11:37;;;;;;;50.25;5.85;;;;;;;1.07;100.00;101308.88;5059230;28;20028;-81
2021/04/03 02:14:04;;;;;;;45.38;5.80;;;;;;;1.07;100.00;101308.88;5060550;28;20499;-81
2021/04/03 02:16:32;;;;;;;45.88;4.95;;;;;;;1.05;100.00;101313.09;5059243;28;20037;-81
2021/04/03 02:19:01;;;;;;;32.97;5.15;;;;;;;1.04;100.00;101319.00;5058827;28;20021;-81
2021/04/03 02:21:26;;;;;;;37.33;5.05;;;;;;;1.00;100.00;101316.31;5057971;28;20170;-81
2021/04/03 02:23:52;;;;;;;40.25;5.75;;;;;;;1.00;100.00;101311.22;5059756;28;20092;-81
2021/04/03 02:26:17;;;;;;;38.40;6.25;;;;;;;1.02;100.00;101305.34;5060633;28;20108;-81
2021/04/03 02:28:42;;;;;;;36.30;5.10;;;;;;;0.95;100.00;101305.06;5058664;28;20029;-81
2021/04/03 02:31:08;;;;;;;45.67;5.38;;;;;;;0.96;100.00;101309.38;5059895;28;20111;-81
2021/04/03 02:33:33;;;;;;;43.15;5.50;;;;;;;0.97;100.00;101304.31;5059451;28;20033;-81
2021/04/03 02:35:58;;;;;;;49.58;6.47;;;;;;;0.94;100.00;101304.22;5059340;28;20096;-81
2021/04/03 02:38:24;;;;;;;44.65;6.20;;;;;;;0.90;100.00;101308.34;5058765;28;20050;-81
2021/04/03 02:40:49;;;;;;;45.67;5.80;;;;;;;0.93;100.00;101299.94;5058502;28;20074;-81
2021/04/03 02:43:59;;;;;;;39.47;5.82;;;;;;;0.80;100.00;101308.88;5057896;28;20028;-80
2021/04/03 02:46:43;;;;;;;44.10;6.28;;;;;;;0.78;100.00;101309.63;4997579;28;20026;-81
2021/04/03 02:49:21;;;;;;;47.53;6.25;;;;;;;0.73;100.00;101303.50;4981547;28;20036;-80
2021/04/03 02:51:51;;;;;;;47.47;5.35;;;;;;;0.67;100.00;101315.22;5035848;28;20033;-81
2021/04/03 02:54:18;;;;;;;37.80;5.55;;;;;;;0.68;100.00;101321.22;5059012;28;20107;-80
2021/04/03 02:56:44;;;;;;;36.03;5.35;;;;;;;0.69;100.00;101320.41;5058518;28;20017;-80
2021/04/03 02:59:18;;;;;;;38.17;6.43;;;;;;;0.71;100.00;101323.88;5059604;28;20393;-80
2021/04/03 03:01:46;;;;;;;44.90;5.53;;;;;;;0.69;100.00;101330.59;5058294;28;20393;-80
2021/04/03 03:04:14;;;;;;;35.92;4.95;;;;;;;0.68;100.00;101326.34;5059128;28;20110;-80
2021/04/03 03:06:40;;;;;;;34.17;5.45;;;;;;;0.66;100.00;101326.25;5059665;28;20424;-80
2021/04/03 03:09:06;;;;;;;43.67;5.45;;;;;;;0.61;100.00;101332.88;5058369;28;20029;-80
2021/04/03 03:11:32;;;;;;;41.25;5.25;;;;;;;0.63;100.00;101331.25;5059602;28;20526;-81
2021/04/03 03:14:00;;;;;;;35.83;6.38;;;;;;;0.63;100.00;101330.41;5058657;28;20025;-81
2021/04/03 03:16:26;;;;;;;27.17;4.65;;;;;;;0.63;100.00;101328.72;5059008;28;20025;-81
2021/04/03 03:18:52;;;;;;;36.17;5.60;;;;;;;0.61;100.00;101334.56;5059649;28;20029;-81
2021/04/03 03:21:18;;;;;;;32.55;4.72;;;;;;;0.53;100.00;101336.88;5058392;28;20025;-80
2021/04/03 03:23:43;;;;;;;35.95;5.32;;;;;;;0.50;100.00;101335.91;5061010;28;20477;-81
2021/04/03 03:26:08;;;;;;;38.55;4.90;;;;;;;0.44;100.00;101344.19;5060628;28;20051;-81
2021/04/03 03:28:34;;;;;;;39.70;5.90;;;;;;;0.48;100.00;101340.94;5061486;28;20388;-81
2021/04/03 03:31:01;;;;;;;32.33;5.45;;;;;;;0.44;100.00;101345.06;5059261;28;20043;-81
2021/04/03 03:33:26;;;;;;;34.50;5.40;;;;;;;0.52;100.00;101352.13;5058805;28;20016;-81
2021/04/03 03:35:51;;;;;;;35.35;6.05;;;;;;;0.49;100.00;101346.91;5060633;28;20025;-81
2021/04/03 03:38:17;;;;;;;29.52;4.85;;;;;;;0.45;100.00;101357.00;5061577;28;20108;-81
2021/04/03 03:40:46;;;;;;;31.35;4.80;;;;;;;0.46;100.00;101347.66;5059501;28;20049;-81
2021/04/03 03:43:16;;;;;;;23.55;4.35;;;;;;;0.50;100.00;101346.13;5061260;28;20052;-81
2021/04/03 03:45:43;;;;;;;26.95;4.15;;;;;;;0.48;100.00;101351.16;5061756;28;20075;-81
2021/04/03 03:48:09;;;;;;;32.40;4.65;;;;;;;0.48;100.00;101361.34;5060440;28;20017;-81
2021/04/03 03:50:34;;;;;;;22.98;4.15;;;;;;;0.47;100.00;101356.22;5061929;28;20029;-81
2021/04/03 03:52:59;;;;;;;29.13;5.13;;;;;;;0.45;100.00;101351.91;5061746;28;20029;-81
2021/04/03 03:55:24;;;;;;;24.38;4.60;;;;;;;0.41;100.00;101365.38;5060610;28;20064;-81
2021/04/03 03:57:50;;;;;;;37.53;4.88;;;;;;;0.37;100.00;101365.19;5060235;28;20064;-81
2021/04/03 04:00:16;;;;;;;27.23;4.35;;;;;;;0.31;100.00;101367.53;5061446;28;20386;-81
2021/04/03 04:02:41;;;;;;;33.00;4.90;;;;;;;0.32;100.00;101365.03;5061068;28;20081;-81
2021/04/03 04:05:07;;;;;;;24.20;4.60;;;;;;;0.32;100.00;101364.19;5062132;28;20029;-81
2021/04/03 04:07:34;;;;;;;21.13;4.57;;;;;;;0.28;100.00;101375.06;5060489;28;20449;-81
2021/04/03 04:10:00;;;;;;;26.27;5.20;;;;;;;0.19;100.00;101378.16;5059687;28;20031;-82
2021/04/03 04:12:29;;;;;;;26.13;4.78;;;;;;;0.25;100.00;101382.59;5062038;28;20025;-81
2021/04/03 04:14:54;;;;;;;31.25;4.88;;;;;;;0.08;100.00;101392.19;5061585;28;20448;-81
2021/04/03 04:17:19;;;;;;;29.58;4.30;;;;;;;0.06;100.00;101392.13;5061861;28;20025;-82
2021/04/03 04:19:46;;;;;;;22.00;4.72;;;;;;;0.14;100.00;101390.75;5060563;28;20488;-81
2021/04/03 04:22:11;;;;;;;27.38;4.82;;;;;;;0.18;100.00;101387.47;5060259;28;20029;-81
2021/04/03 04:24:36;;;;;;;31.02;4.75;;;;;;;0.12;100.00;101392.34;5062292;28;20024;-81
2021/04/03 04:27:02;;;;;;;26.60;4.60;;;;;;;0.09;100.00;101392.22;5066528;28;20025;-81
2021/04/03 04:29:27;;;;;;;25.38;5.53;;;;;;;0.15;100.00;101392.47;5060183;28;20028;-82
2021/04/03 04:31:53;;;;;;;29.92;4.57;;;;;;;0.25;100.00;101400.47;5056898;28;20021;-82
2021/04/03 04:34:21;;;;;;;16.33;4.13;;;;;;;0.18;100.00;101397.69;5058654;28;20055;-83
2021/04/03 04:36:46;;;;;;;16.48;4.30;;;;;;;0.17;100.00;101401.06;5057073;28;20033;-83
2021/04/03 04:39:12;;;;;;;31.33;4.80;;;;;;;0.13;100.00;101391.56;5056426;28;20575;-83
2021/04/03 04:41:37;;;;;;;30.17;4.93;;;;;;;0.12;100.00;101394.03;5056997;28;20021;-83
2021/04/03 04:44:03;;;;;;;27.40;4.85;;;;;;;0.01;100.00;101392.78;5058192;28;20021;-83
2021/04/03 04:46:28;;;;;;;24.35;5.03;;;;;;;0.03;100.00;101389.44;5065012;28;20508;-83
2021/04/03 04:48:53;;;;;;;24.30;6.82;;;;;;;-0.03;100.00;101389.25;5063170;28;20060;-83
2021/04/03 04:51:18;;;;;;;25.52;4.15;;;;;;;-0.02;100.00;101396.94;5065227;28;20040;-83
2021/04/03 04:53:44;;;;;;;37.08;5.05;;;;;;;-0.12;100.00;101399.97;5063794;28;20254;-82
2021/04/03 04:56:09;;;;;;;23.40;5.28;;;;;;;-0.04;100.00;101405.34;5064146;28;20021;-82
2021/04/03 04:58:34;;;;;;;22.52;4.50;;;;;;;-0.09;100.00;101417.06;5063570;28;20025;-82
2021/04/03 05:01:00;;;;;;;30.35;4.68;;;;;;;-0.12;100.00;101422.03;5064048;28;20060;-82
2021/04/03 05:03:27;;;;;;;25.02;4.68;;;;;;;-0.11;100.00;101419.53;5063990;28;20032;-83
2021/04/03 05:05:52;;;;;;;24.42;6.30;;;;;;;-0.08;100.00;101429.00;5063877;28;20549;-82
2021/04/03 05:08:17;;;;;;;22.40;4.55;;;;;;;-0.03;100.00;101427.50;5064921;28;20048;-82
2021/04/03 05:10:43;;;;;;;23.95;4.72;;;;;;;0.11;100.00;101435.66;5064445;28;20115;-82
2021/04/03 05:13:08;;;;;;;32.40;4.68;;;;;;;0.09;100.00;101430.50;5065103;28;20430;-82
2021/04/03 05:15:33;;;;;;;24.08;5.50;;;;;;;0.12;100.00;101432.28;5064715;28;20494;-82
2021/04/03 05:17:59;;;;;;;25.65;4.63;;;;;;;0.14;100.00;101435.78;5063636;28;20036;-82
2021/04/03 05:20:24;;;;;;;18.27;4.40;;;;;;;0.12;100.00;101435.72;5064219;28;20028;-82
2021/04/03 05:22:49;;;;;;;17.63;4.55;;;;;;;0.14;100.00;101436.66;5064806;28;20031;-82
2021/04/03 05:25:15;;;;;;;20.70;4.35;;;;;;;0.21;100.00;101436.06;5063853;28;20021;-82
2021/04/03 05:27:41;;;;;;;22.40;4.55;;;;;;;0.23;100.00;101438.69;5064648;28;20032;-83
2021/04/03 05:30:08;;;;;;;25.48;4.43;;;;;;;0.29;100.00;101436.38;5063241;28;20452;-82
2021/04/03 05:32:33;;;;;;;18.67;4.38;;;;;;;0.29;100.00;101449.13;5062925;28;20025;-82
2021/04/03 05:34:59;;;;;;;21.80;4.90;;;;;;;0.34;100.00;101446.72;5062693;28;20029;-82
2021/04/03 05:37:24;;;;;;;19.15;5.10;;;;;;;0.19;100.00;101475.97;5062744;28;20029;-82
2021/04/03 05:39:49;;;;;;;28.80;5.30;;;;;;;0.38;100.00;101466.47;5063171;28;20400;-82
2021/04/03 05:42:20;;;;;;;23.25;4.80;;;;;;;0.55;100.00;101478.16;5063722;28;20112;-83
2021/04/03 05:44:47;;;;;;;20.42;4.85;;;;;;;0.89;100.00;101475.19;5063756;28;20028;-83
2021/04/03 05:47:13;;;;;;;20.35;4.97;;;;;;;0.97;100.00;101485.66;5062475;28;20048;-83
2021/04/03 05:49:40;;;;;;;19.52;4.70;;;;;;;1.17;100.00;101482.91;5062677;28;20025;-83
2021/04/03 05:52:07;;;;;;;15.80;4.72;;;;;;;1.36;100.00;101483.63;5062322;28;20025;-83
2021/04/03 05:54:37;;;;;;;15.75;5.05;;;;;;;1.43;99.91;101481.28;5062832;28;20021;-83
2021/04/03 05:57:06;;;;;;;15.38;4.38;;;;;;;1.69;98.98;101495.78;5058226;28;20021;-83
2021/04/03 05:59:32;;;;;;;12.65;3.60;;;;;;;1.98;97.28;101490.75;5059409;28;20028;-83
2021/04/03 06:01:57;;;;;;;13.45;3.55;;;;;;;2.11;96.77;101489.44;5059549;28;20500;-83
2021/04/03 06:04:23;;;;;;;14.48;3.85;;;;;;;2.47;95.61;101489.72;5060340;28;20025;-83
2021/04/03 06:06:48;;;;;;;20.35;4.60;;;;;;;2.81;92.82;101494.13;5060385;28;20028;-82
2021/04/03 06:09:14;;;;;;;15.57;4.00;;;;;;;3.13;91.30;101489.88;5059741;28;20541;-83
2021/04/03 06:11:47;;;;;;;13.55;4.00;;;;;;;3.30;89.35;101495.47;5060954;28;20127;-83
2021/04/03 06:14:13;;;;;;;16.25;3.83;;;;;;;3.52;87.29;101494.31;5060545;28;20540;-82
2021/04/03 06:16:40;;;;;;;14.45;4.18;;;;;;;3.70;87.23;101506.75;5060613;28;20052;-82
2021/04/03 06:19:20;;;;;;;16.27;4.13;;;;;;;4.33;83.61;101503.97;5059686;28;20071;-82
2021/04/03 06:22:06;;;;;;;15.85;3.95;;;;;;;4.43;82.74;101506.72;5060640;28;20096;-82
2021/04/03 06:24:32;;;;;;;19.30;3.78;;;;;;;4.82;81.08;101512.72;5059931;28;20037;-82
2021/04/03 06:27:04;;;;;;;15.63;3.50;;;;;;;4.88;79.76;101517.13;5062224;28;20077;-82
2021/04/03 06:29:45;;;;;;;17.05;3.63;;;;;;;5.16;79.60;101515.97;5060770;28;20032;-82
2021/04/03 06:32:33;;;;;;;15.15;3.95;;;;;;;5.11;78.72;101525.31;5061345;28;20094;-82
2021/04/03 06:34:59;;;;;;;14.30;3.45;;;;;;;5.67;76.32;101529.78;5067427;28;20107;-81
2021/04/03 06:37:30;;;;;;;20.77;4.07;;;;;;;5.70;77.79;101530.69;5067732;28;20036;-81
2021/04/03 06:39:58;;;;;;;14.77;3.60;;;;;;;5.87;76.51;101533.53;5062424;28;20111;-82
2021/04/03 06:42:50;;;;;;;16.70;3.90;;;;;;;5.40;77.46;101535.28;5063199;28;20500;-82
2021/04/03 06:45:28;;;;;;;19.35;3.97;;;;;;;5.78;76.42;101530.81;5060384;28;20020;-82
2021/04/03 06:48:07;;;;;;;14.82;3.78;;;;;;;6.04;73.77;101536.44;5061124;28;20082;-82
2021/04/03 06:50:37;;;;;;;14.57;3.55;;;;;;;6.65;73.14;101527.03;5060195;28;20107;-82
2021/04/03 06:53:07;;;;;;;15.30;3.58;;;;;;;6.78;71.25;101529.78;5059419;28;20492;-82
2021/04/03 06:55:33;;;;;;;12.43;3.92;;;;;;;6.30;72.14;101535.97;5059885;28;20473;-81
2021/04/03 06:58:02;;;;;;;13.90;3.45;;;;;;;6.71;71.30;101535.69;5059483;28;20025;-81
2021/04/03 07:00:30;;;;;;;13.65;3.83;;;;;;;6.96;68.81;101531.69;5059926;28;20017;-81
2021/04/03 07:03:17;;;;;;;9.82;2.90;;;;;;;6.82;68.44;101539.28;5059354;28;20396;-81
2021/04/03 07:05:44;;;;;;;18.08;3.70;;;;;;;6.84;69.74;101550.50;5060569;28;20043;-81
2021/04/03 07:08:10;;;;;;;13.50;3.30;;;;;;;7.44;68.31;101549.47;5059928;28;20025;-81
2021/04/03 07:10:39;;;;;;;10.40;3.13;;;;;;;7.63;66.04;101557.41;5060173;28;20025;-82
2021/04/03 07:13:06;;;;;;;11.07;3.28;;;;;;;7.78;65.20;101561.00;5059537;28;20047;-81
2021/04/03 07:15:32;;;;;;;28.25;6.07;;;;;;;7.42;66.07;101550.28;5058884;28;20028;-81
2021/04/03 07:17:57;;;;;;;12.88;3.28;;;;;;;7.89;65.60;101557.66;5064075;28;20028;-81
2021/04/03 07:20:25;;;;;;;8.70;3.35;;;;;;;8.49;63.44;101559.00;5063579;28;20029;-82
2021/04/03 07:23:03;;;;;;;10.73;3.20;;;;;;;8.13;63.95;101557.88;5058222;28;20028;-81
2021/04/03 07:25:35;;;;;;;14.57;4.15;;;;;;;8.26;63.62;101558.81;5058948;28;20021;-81
2021/04/03 07:28:01;;;;;;;9.80;2.90;;;;;;;8.41;63.32;101561.56;5058916;28;20025;-81
2021/04/03 07:30:35;;;;;;;9.10;3.03;;;;;;;8.68;61.09;101563.44;5058021;28;20378;-82
2021/04/03 07:33:21;;;;;;;11.60;3.15;;;;;;;9.27;59.80;101555.91;5057186;28;20082;-81
2021/04/03 07:35:57;;;;;;;14.55;3.65;;;;;;;8.63;60.55;101556.50;5056737;28;20392;-81
2021/04/03 07:38:24;;;;;;;13.95;3.75;;;;;;;8.98;60.13;101557.53;5057272;28;20083;-82
2021/04/03 07:40:56;;;;;;;9.65;2.75;;;;;;;9.19;59.25;101555.91;5058263;28;20451;-81
2021/04/03 07:43:27;;;;;;;11.00;3.25;;;;;;;9.06;60.49;101557.59;5057833;28;20393;-81
2021/04/03 07:45:52;;;;;;;13.55;3.42;;;;;;;9.72;58.71;101564.66;5055418;28;20039;-82
2021/04/03 07:48:41;;;;;;;10.77;2.95;;;;;;;9.60;57.14;101561.19;5056315;28;20385;-82
2021/04/03 07:51:10;;;;;;;10.68;3.25;;;;;;;9.35;57.75;101569.75;5056770;28;20021;-83
2021/04/03 07:53:41;;;;;;;10.00;3.10;;;;;;;10.21;56.33;101569.88;5056245;28;20051;-82
2021/04/03 07:56:08;;;;;;;10.40;3.33;;;;;;;10.19;55.76;101569.00;5058009;28;20100;-82
2021/04/03 07:58:35;;;;;;;12.98;3.30;;;;;;;9.85;56.51;101575.06;5058144;28;20049;-81
2021/04/03 08:01:03;;;;;;;12.75;3.10;;;;;;;9.71;54.36;101576.75;5057286;28;20021;-81
2021/04/03 08:03:31;;;;;;;11.25;2.90;;;;;;;10.21;53.89;101578.50;5056826;28;20077;-80
2021/04/03 08:06:16;;;;;;;9.25;2.65;;;;;;;10.82;52.22;101569.81;5057134;28;20029;-81
2021/04/03 08:08:42;;;;;;;9.93;3.20;;;;;;;10.52;53.97;101579.38;5055589;28;20048;-81
2021/04/03 08:11:15;;;;;;;9.55;2.70;;;;;;;10.92;51.93;101581.03;5057119;28;20434;-81
2021/04/03 08:13:53;;;;;;;12.40;2.47;;;;;;;10.52;52.59;101581.13;5056228;28;20028;-81
2021/04/03 08:16:20;;;;;;;10.50;2.78;;;;;;;10.46;51.98;101579.38;5057240;28;20029;-81
2021/04/03 08:18:48;;;;;;;9.48;2.72;;;;;;;10.85;51.74;101580.19;5056716;28;20389;-81
2021/04/03 08:21:15;;;;;;;12.60;3.25;;;;;;;10.70;52.54;101581.06;5056338;28;20023;-81
2021/04/03 08:23:51;;;;;;;10.85;2.58;;;;;;;10.90;48.72;101582.75;5056554;28;20028;-81
2021/04/03 08:26:19;;;;;;;9.07;2.40;;;;;;;10.65;49.62;101585.41;5056879;28;20025;-82
2021/04/03 08:28:44;;;;;;;8.40;2.40;;;;;;;11.95;45.86;101586.59;5055480;28;20485;-81
2021/04/03 08:31:25;;;;;;;11.38;2.20;;;;;;;11.53;46.45;101584.22;5056681;28;20044;-81
2021/04/03 08:33:53;;;;;;;7.68;2.15;;;;;;;11.16;44.92;101585.28;5057082;28;20100;-80
2021/04/03 08:36:21;;;;;;;9.07;2.78;;;;;;;11.31;44.33;101585.19;5055406;28;20025;-80
2021/04/03 08:38:47;;;;;;;7.53;2.65;;;;;;;11.87;44.20;101588.38;5054250;28;20025;-80
2021/04/03 08:41:18;;;;;;;11.73;2.60;;;;;;;11.39;45.48;101587.75;5055198;28;20473;-80
2021/04/03 08:43:44;;;;;;;5.95;2.15;;;;;;;11.42;45.00;101598.13;5054012;28;20505;-80
2021/04/03 08:46:13;;;;;;;6.45;1.88;;;;;;;12.62;44.31;101588.59;5054280;28;20108;-79
2021/04/03 08:48:41;;;;;;;7.38;2.45;;;;;;;12.17;45.79;101606.34;5054402;28;20012;-79
2021/04/03 08:51:08;;;;;;;8.20;2.10;;;;;;;11.91;43.75;101595.25;5053572;28;20025;-79
2021/04/03 08:53:44;;;;;;;8.05;2.15;;;;;;;11.06;44.41;101603.47;5054632;28;20025;-80
2021/04/03 08:56:15;;;;;;;6.45;2.03;;;;;;;11.40;45.74;101605.94;5053759;28;20115;-79
2021/04/03 08:58:41;;;;;;;8.55;2.35;;;;;;;12.20;43.11;101598.50;5053301;28;20465;-79
2021/04/03 09:01:06;;;;;;;8.23;2.17;;;;;;;11.11;45.05;101595.66;5054965;28;20055;-79
2021/04/03 09:03:34;;;;;;;8.20;2.22;;;;;;;12.65;41.69;101601.59;5054845;28;20028;-79
2021/04/03 09:06:00;;;;;;;7.28;1.92;;;;;;;11.92;41.58;101600.47;5053139;28;20107;-79
2021/04/03 09:08:26;;;;;;;6.43;1.83;;;;;;;12.05;39.26;101596.03;5054209;28;20021;-79
2021/04/03 09:10:59;;;;;;;5.30;1.48;;;;;;;11.18;39.62;101592.19;5054369;28;20032;-78
2021/04/03 09:13:36;;;;;;;5.80;1.60;;;;;;;11.06;37.66;101605.22;5052899;28;20025;-80
2021/04/03 09:16:12;;;;;;;6.05;2.00;;;;;;;12.27;38.78;101599.31;5057961;28;20208;-80
2021/04/03 09:18:39;;;;;;;5.43;1.42;;;;;;;12.64;37.84;101594.63;5055808;28;20055;-80
2021/04/03 09:21:05;;;;;;;7.72;2.00;;;;;;;13.18;37.49;101599.25;5055155;28;20025;-80
2021/04/03 09:23:30;;;;;;;4.65;1.80;;;;;;;12.37;37.38;101597.50;5054795;28;20036;-81
2021/04/03 09:26:04;;;;;;;10.23;2.20;;;;;;;12.67;37.00;101594.59;5055162;28;20338;-80
2021/04/03 09:28:36;;;;;;;6.68;1.90;;;;;;;12.64;37.77;101592.03;5059326;28;20025;-80
2021/04/03 09:31:02;;;;;;;8.55;3.42;;;;;;;12.45;36.67;101600.91;5058712;28;20033;-79
2021/04/03 09:33:28;;;;;;;9.25;2.95;;;;;;;12.63;36.54;101603.31;5062237;28;20027;-84
2021/04/03 09:36:11;;;;;;;11.50;4.00;;;;;;;11.94;39.55;101596.09;5059774;28;20037;-84
2021/04/03 09:38:37;;;;;;;10.77;4.65;;;;;;;12.62;37.15;101592.91;5062338;28;20028;-83
2021/04/03 09:41:19;;;;;;;10.35;4.53;;;;;;;12.99;36.38;101585.59;5063241;28;20029;-82
2021/04/03 09:43:45;;;;;;;10.48;4.60;;;;;;;12.52;36.22;101586.09;5061457;28;20025;-82
2021/04/03 09:46:10;;;;;;;9.38;4.03;;;;;;;12.87;36.71;101584.00;5059331;28;20473;-85
2021/04/03 09:48:36;;;;;;;10.20;4.20;;;;;;;12.64;35.17;101579.00;5061658;28;20029;-83
2021/04/03 09:51:05;;;;;;;9.30;2.60;;;;;;;13.09;33.65;101591.56;5059647;28;20017;-83
2021/04/03 09:53:31;;;;;;;7.80;2.70;;;;;;;12.86;34.83;101592.66;5060994;28;20037;-81
2021/04/03 09:55:56;;;;;;;7.32;2.58;;;;;;;12.40;34.09;101587.91;5059822;28;20021;-81
2021/04/03 09:58:22;;;;;;;7.25;2.40;;;;;;;13.20;33.46;101592.25;5060314;28;20457;-81
2021/04/03 10:00:48;;;;;;;8.30;2.78;;;;;;;12.77;34.70;101594.50;5059777;28;20025;-81
2021/04/03 10:03:13;;;;;;;8.07;2.75;;;;;;;13.10;34.05;101591.53;5059424;28;20025;-81
2021/04/03 10:05:38;;;;;;;6.22;2.53;;;;;;;13.44;33.52;101595.47;5057718;28;20032;-80
2021/04/03 10:08:04;;;;;;;6.45;1.63;;;;;;;12.53;33.40;101593.91;5057920;28;20032;-80
2021/04/03 10:10:29;;;;;;;6.20;2.03;;;;;;;12.15;34.65;101591.63;5062250;28;20041;-79
2021/04/03 10:12:54;;;;;;;10.52;1.85;;;;;;;12.44;33.74;101594.84;5070827;28;20052;-79
2021/04/03 10:15:21;;;;;;;6.22;1.50;;;;;;;12.79;34.14;101592.75;5059602;28;20082;-80
2021/04/03 10:17:47;;;;;;;4.30;1.50;;;;;;;13.11;31.82;101598.44;5058936;28;20068;-79
2021/04/03 10:20:12;;;;;;;6.13;2.08;;;;;;;13.47;33.60;101595.44;5057215;28;20481;-80
2021/04/03 10:22:38;;;;;;;5.20;1.63;;;;;;;13.13;33.28;101598.44;5057705;28;20028;-80
2021/04/03 10:25:03;;;;;;;6.55;1.45;;;;;;;13.17;33.56;101604.47;5058998;28;20396;-81
2021/04/03 10:27:29;;;;;;;4.47;1.70;;;;;;;13.28;33.03;101598.28;5056524;28;20024;-81
2021/04/03 10:29:54;;;;;;;6.13;1.75;;;;;;;13.40;32.56;101594.66;5055114;28;20028;-81
2021/04/03 10:32:19;;;;;;;5.13;1.33;;;;;;;13.27;33.21;101595.69;5056959;28;20073;-82
2021/04/03 10:34:44;;;;;;;5.28;1.58;;;;;;;13.74;33.81;101604.63;5080482;22;20049;-82
2021/04/03 10:37:10;;;;;;;4.97;1.60;;;;;;;13.48;32.60;101603.22;5058859;28;20401;-80
2021/04/03 10:39:35;;;;;;;4.43;1.40;;;;;;;13.36;32.51;101603.38;5059663;28;20158;-82
2021/04/03 10:42:00;;;;;;;6.72;2.30;;;;;;;13.27;32.04;101600.88;5059368;28;20079;-81
2021/04/03 10:44:25;;;;;;;5.57;1.63;;;;;;;12.52;33.24;101602.56;5042682;28;20035;-81
2021/04/03 10:46:53;;;;;;;7.95;2.13;;;;;;;12.83;33.34;101605.72;5059053;28;20031;-82
2021/04/03 10:49:18;;;;;;;6.65;2.00;;;;;;;13.29;32.77;101607.81;5057598;28;20021;-82
2021/04/03 10:51:44;;;;;;;5.00;1.55;;;;;;;13.18;33.33;101609.69;5057908;28;20021;-82
2021/04/03 10:54:09;;;;;;;6.55;1.90;;;;;;;13.86;31.92;101596.63;5056575;28;20047;-82
2021/04/03 10:56:34;;;;;;;6.63;1.60;;;;;;;12.75;33.68;101591.06;5057563;28;20047;-82
2021/04/03 10:58:59;;;;;;;6.68;2.13;;;;;;;12.98;33.78;101602.09;5058682;28;20392;-81
2021/04/03 11:01:25;;;;;;;7.35;2.60;;;;;;;13.07;33.31;101607.19;5057291;28;20040;-81
2021/04/03 11:03:50;;;;;;;7.95;2.03;;;;;;;13.48;32.24;101604.97;5056751;28;20499;-81
2021/04/03 11:06:15;;;;;;;6.20;1.92;;;;;;;13.75;31.62;101594.16;5058990;28;20030;-81
2021/04/03 11:08:40;;;;;;;5.28;1.50;;;;;;;13.51;33.73;101600.56;5059204;28;20384;-81
2021/04/03 11:11:06;;;;;;;5.10;1.77;;;;;;;13.37;32.20;101594.69;5058705;28;20132;-81
2021/04/03 11:13:31;;;;;;;6.40;1.60;;;;;;;14.50;31.47;101582.50;5056873;28;20033;-81
2021/04/03 11:15:56;;;;;;;5.28;1.95;;;;;;;13.97;31.68;101586.84;5055818;28;20025;-81
2021/04/03 11:18:22;;;;;;;5.05;1.60;;;;;;;14.40;30.32;101583.53;5057379;28;20119;-81
2021/04/03 11:20:47;;;;;;;4.68;1.30;;;;;;;14.58;29.95;101592.81;5057188;28;20029;-81
2021/04/03 11:23:12;;;;;;;5.50;2.15;;;;;;;13.76;30.92;101595.91;5055935;28;20140;-81
2021/04/03 11:25:38;;;;;;;4.65;1.73;;;;;;;11.84;33.54;101593.56;5055634;28;20025;-80